TAIP12 YBOK-YBOK
Flight info
| Callsign | TAIP12 |
|---|---|
| Flight time | 0h 1m |
| Altitude | 2500 |
| Route | VFR |
| Aircraft | EC45/L-G/1200 |
Departure
| Time | 2026-04-23 02:04 |
|---|---|
| Airport | Oakey Army Aviation Centre (YBOK) |
Arrival
| Time | 2026-04-23 02:06 |
|---|---|
| Airport | Oakey Army Aviation Centre (YBOK) |
| Time | Latitude | Longitude | Altitude | Speed | Heading |
|---|---|---|---|---|---|
| 2026-04-23 01:59 | -27.41359 | 151.73604 | 1346 ft | 0 kts | 281° |
| 2026-04-23 02:00 | -27.41359 | 151.73601 | 1349 ft | 4 kts | 12° |
| 2026-04-23 02:00 | -27.41321 | 151.73562 | 1335 ft | 6 kts | 302° |
| 2026-04-23 02:01 | -27.41315 | 151.73493 | 1333 ft | 6 kts | 277° |
| 2026-04-23 02:01 | -27.41272 | 151.73448 | 1337 ft | 13 kts | 20° |
| 2026-04-23 02:01 | -27.41235 | 151.73516 | 1347 ft | 6 kts | 98° |
| 2026-04-23 02:01 | -27.41235 | 151.73528 | 1337 ft | 0 kts | 99° |
| 2026-04-23 02:02 | -27.41240 | 151.73576 | 1406 ft | 32 kts | 100° |
| 2026-04-23 02:02 | -27.41376 | 151.73928 | 1549 ft | 67 kts | 145° |
| 2026-04-23 02:02 | -27.41806 | 151.73696 | 1684 ft | 92 kts | 266° |
| 2026-04-23 02:02 | -27.41704 | 151.72923 | 1773 ft | 106 kts | 285° |
| 2026-04-23 02:03 | -27.41497 | 151.72052 | 1663 ft | 129 kts | 290° |
| 2026-04-23 02:03 | -27.40893 | 151.71596 | 1921 ft | 105 kts | 33° |
| 2026-04-23 02:03 | -27.40915 | 151.72441 | 1575 ft | 117 kts | 103° |
| 2026-04-23 02:03 | -27.40986 | 151.72949 | 1403 ft | 31 kts | 113° |
| 2026-04-23 02:04 | -27.41043 | 151.73241 | 1395 ft | 59 kts | 107° |
| 2026-04-23 02:04 | -27.41139 | 151.73773 | 1539 ft | 77 kts | 104° |
| 2026-04-23 02:04 | -27.41369 | 151.74281 | 1811 ft | 72 kts | 156° |
| 2026-04-23 02:04 | -27.41894 | 151.74165 | 1963 ft | 89 kts | 193° |
| 2026-04-23 02:05 | -27.42384 | 151.73671 | 2015 ft | 109 kts | 253° |
| 2026-04-23 02:05 | -27.42280 | 151.72844 | 2083 ft | 109 kts | 283° |
| 2026-04-23 02:05 | -27.42075 | 151.71986 | 2013 ft | 119 kts | 281° |
| 2026-04-23 02:05 | -27.41555 | 151.71479 | 2060 ft | 98 kts | 8° |
| 2026-04-23 02:06 | -27.40909 | 151.71607 | 1962 ft | 90 kts | 49° |
| 2026-04-23 02:06 | -27.40871 | 151.72181 | 1786 ft | 62 kts | 107° |
| 2026-04-23 02:06 | -27.40933 | 151.72563 | 1572 ft | 40 kts | 105° |
| 2026-04-23 02:06 | -27.40955 | 151.72800 | 1386 ft | 18 kts | 113° |
| 2026-04-23 02:07 | -27.40979 | 151.72848 | 1342 ft | 17 kts | 160° |
| 2026-04-23 02:07 | -27.41085 | 151.72842 | 1350 ft | 13 kts | 207° |
| 2026-04-23 02:07 | -27.41137 | 151.72887 | 1341 ft | 17 kts | 96° |
| 2026-04-23 02:07 | -27.41159 | 151.73048 | 1347 ft | 25 kts | 105° |
| 2026-04-23 02:08 | -27.41196 | 151.73269 | 1345 ft | 29 kts | 109° |
| 2026-04-23 02:08 | -27.41223 | 151.73455 | 1343 ft | 17 kts | 111° |
| 2026-04-23 02:08 | -27.41234 | 151.73526 | 1334 ft | 4 kts | 114° |
| 2026-04-23 02:08 | -27.41234 | 151.73528 | 1333 ft | 0 kts | 102° |
| 2026-04-23 02:10 | -27.41261 | 151.73704 | 1442 ft | 44 kts | 110° |
| 2026-04-23 02:10 | -27.41368 | 151.74140 | 1573 ft | 66 kts | 110° |
| 2026-04-23 02:10 | -27.41527 | 151.74687 | 1710 ft | 80 kts | 111° |
| 2026-04-23 02:10 | -27.41716 | 151.75304 | 1901 ft | 86 kts | 111° |
| 2026-04-23 02:11 | -27.41926 | 151.75946 | 1858 ft | 86 kts | 111° |
| 2026-04-23 02:11 | -27.42150 | 151.76553 | 1820 ft | 81 kts | 111° |
| 2026-04-23 02:11 | -27.42358 | 151.77104 | 1813 ft | 71 kts | 111° |
| 2026-04-23 02:11 | -27.42547 | 151.77580 | 1784 ft | 63 kts | 112° |
| 2026-04-23 02:12 | -27.42724 | 151.78017 | 1827 ft | 61 kts | 114° |
| 2026-04-23 02:12 | -27.42905 | 151.78444 | 1928 ft | 60 kts | 116° |
| 2026-04-23 02:12 | -27.43096 | 151.78849 | 1989 ft | 58 kts | 118° |
| 2026-04-23 02:12 | -27.43296 | 151.79226 | 1984 ft | 55 kts | 121° |
| 2026-04-23 02:13 | -27.43497 | 151.79578 | 1972 ft | 54 kts | 124° |
| 2026-04-23 02:13 | -27.43711 | 151.79924 | 1962 ft | 54 kts | 125° |
| 2026-04-23 02:13 | -27.43941 | 151.80256 | 1947 ft | 53 kts | 128° |
| 2026-04-23 02:13 | -27.44216 | 151.80535 | 1914 ft | 54 kts | 149° |
| 2026-04-23 02:14 | -27.44461 | 151.80525 | 1869 ft | 60 kts | 206° |
| 2026-04-23 02:14 | -27.44415 | 151.79848 | 1744 ft | 73 kts | 294° |
| 2026-04-23 02:14 | -27.44259 | 151.79519 | 1745 ft | 72 kts | 297° |
| 2026-04-23 02:14 | -27.44144 | 151.78991 | 1880 ft | 71 kts | 260° |
| 2026-04-23 02:15 | -27.44851 | 151.79170 | 1866 ft | 119 kts | 113° |
| 2026-04-23 02:15 | -27.45153 | 151.80045 | 1871 ft | 117 kts | 112° |
| 2026-04-23 02:15 | -27.45468 | 151.80914 | 1875 ft | 121 kts | 121° |
| 2026-04-23 02:16 | -27.45723 | 151.80550 | 2048 ft | 108 kts | 2° |
| 2026-04-23 02:16 | -27.45309 | 151.80875 | 1954 ft | 122 kts | 58° |
| 2026-04-23 02:16 | -27.44775 | 151.81655 | 1924 ft | 130 kts | 65° |
| 2026-04-23 02:16 | -27.44299 | 151.82441 | 1923 ft | 115 kts | 53° |
| 2026-04-23 02:17 | -27.43718 | 151.83032 | 1948 ft | 112 kts | 45° |
| 2026-04-23 02:17 | -27.43093 | 151.83526 | 2049 ft | 105 kts | 45° |
| 2026-04-23 02:17 | -27.42484 | 151.84052 | 2110 ft | 110 kts | 49° |
| 2026-04-23 02:17 | -27.41921 | 151.84567 | 2164 ft | 104 kts | 50° |
| 2026-04-23 02:18 | -27.41296 | 151.85206 | 2087 ft | 131 kts | 53° |
| 2026-04-23 02:18 | -27.40593 | 151.85949 | 2050 ft | 144 kts | 53° |
| 2026-04-23 02:18 | -27.39908 | 151.86676 | 2114 ft | 128 kts | 52° |
| 2026-04-23 02:18 | -27.39303 | 151.87353 | 2146 ft | 117 kts | 53° |
| 2026-04-23 02:19 | -27.38741 | 151.87968 | 2073 ft | 108 kts | 54° |
| 2026-04-23 02:19 | -27.38219 | 151.88489 | 1973 ft | 92 kts | 52° |
| 2026-04-23 02:19 | -27.37791 | 151.88930 | 2004 ft | 72 kts | 54° |
| 2026-04-23 02:19 | -27.37451 | 151.89245 | 2054 ft | 58 kts | 54° |
| 2026-04-23 02:20 | -27.37170 | 151.89662 | 1886 ft | 86 kts | 86° |
| 2026-04-23 02:20 | -27.36786 | 151.90301 | 1526 ft | 109 kts | 46° |
| 2026-04-23 02:20 | -27.36611 | 151.91014 | 1529 ft | 96 kts | 108° |
| 2026-04-23 02:20 | -27.36888 | 151.91685 | 1574 ft | 103 kts | 126° |
| 2026-04-23 02:21 | -27.37360 | 151.92181 | 1583 ft | 104 kts | 198° |
| 2026-04-23 02:21 | -27.38010 | 151.92041 | 1676 ft | 96 kts | 243° |
| 2026-04-23 02:21 | -27.38516 | 151.91980 | 1884 ft | 101 kts | 131° |
| 2026-04-23 02:21 | -27.38350 | 151.92775 | 1645 ft | 123 kts | 118° |
| 2026-04-23 02:22 | -27.38614 | 151.93580 | 1616 ft | 96 kts | 83° |
| 2026-04-23 02:22 | -27.38223 | 151.94081 | 1611 ft | 79 kts | 56° |
| 2026-04-23 02:22 | -27.37861 | 151.94509 | 1579 ft | 74 kts | 59° |
| 2026-04-23 02:22 | -27.37552 | 151.95078 | 1604 ft | 96 kts | 57° |
| 2026-04-23 02:23 | -27.37144 | 151.95703 | 1633 ft | 102 kts | 75° |
| 2026-04-23 02:23 | -27.36791 | 151.96210 | 1770 ft | 45 kts | 86° |
| 2026-04-23 02:23 | -27.36599 | 151.96694 | 1644 ft | 89 kts | 58° |
| 2026-04-23 02:23 | -27.36260 | 151.97347 | 1870 ft | 89 kts | 123° |
| 2026-04-23 02:24 | -27.36493 | 151.97145 | 1850 ft | 53 kts | 8° |
| 2026-04-23 02:24 | -27.36300 | 151.97128 | 1722 ft | 32 kts | 26° |
| 2026-04-23 02:24 | -27.36327 | 151.97306 | 1677 ft | 38 kts | 273° |
| 2026-04-23 02:24 | -27.36249 | 151.97173 | 1671 ft | 33 kts | 88° |
| 2026-04-23 02:25 | -27.36367 | 151.97338 | 1694 ft | 55 kts | 177° |
| 2026-04-23 02:25 | -27.36338 | 151.97738 | 1729 ft | 82 kts | 12° |
| 2026-04-23 02:25 | -27.35734 | 151.97864 | 1690 ft | 85 kts | 57° |
| 2026-04-23 02:25 | -27.35678 | 151.98535 | 1705 ft | 87 kts | 98° |
| 2026-04-23 02:26 | -27.35118 | 151.98966 | 1730 ft | 113 kts | 31° |
| 2026-04-23 02:26 | -27.34410 | 151.99176 | 1690 ft | 52 kts | 68° |
| 2026-04-23 02:26 | -27.34264 | 151.99310 | 1713 ft | 69 kts | 20° |
| 2026-04-23 02:26 | -27.33807 | 151.99526 | 1746 ft | 77 kts | 25° |
| 2026-04-23 02:27 | -27.33309 | 151.99491 | 1806 ft | 77 kts | 272° |
| 2026-04-23 02:27 | -27.33625 | 151.99040 | 1747 ft | 78 kts | 244° |
| 2026-04-23 02:27 | -27.33329 | 151.98716 | 2018 ft | 65 kts | 74° |
| 2026-04-23 02:27 | -27.33300 | 151.98804 | 2061 ft | 13 kts | 167° |
| 2026-04-23 02:28 | -27.33331 | 151.98819 | 1925 ft | 5 kts | 183° |
| 2026-04-23 02:28 | -27.33343 | 151.98820 | 1867 ft | 0 kts | 187° |
| 2026-04-23 02:28 | -27.33299 | 151.98895 | 1885 ft | 43 kts | 59° |
| 2026-04-23 02:28 | -27.33254 | 151.99268 | 1885 ft | 64 kts | 111° |
| 2026-04-23 02:29 | -27.32885 | 151.99690 | 1934 ft | 81 kts | 48° |
| 2026-04-23 02:29 | -27.32524 | 152.00004 | 1929 ft | 46 kts | 49° |
| 2026-04-23 02:29 | -27.32375 | 152.00170 | 1846 ft | 18 kts | 64° |
| 2026-04-23 02:29 | -27.32352 | 152.00210 | 1777 ft | 1 kts | 82° |
| 2026-04-23 02:31 | -27.32063 | 152.00246 | 1908 ft | 77 kts | 346° |
| 2026-04-23 02:31 | -27.31472 | 152.00020 | 2165 ft | 97 kts | 345° |
| 2026-04-23 02:32 | -27.30822 | 151.99777 | 2373 ft | 114 kts | 345° |
| 2026-04-23 02:32 | -27.29988 | 151.99438 | 2369 ft | 138 kts | 343° |
| 2026-04-23 02:32 | -27.29128 | 151.98984 | 2468 ft | 136 kts | 335° |
| 2026-04-23 02:32 | -27.28296 | 151.98476 | 2584 ft | 134 kts | 332° |
| 2026-04-23 02:33 | -27.27484 | 151.97951 | 2925 ft | 135 kts | 331° |
| 2026-04-23 02:33 | -27.26728 | 151.97434 | 3041 ft | 126 kts | 330° |
| 2026-04-23 02:33 | -27.25968 | 151.96925 | 3057 ft | 128 kts | 330° |
| 2026-04-23 02:33 | -27.25190 | 151.96417 | 3043 ft | 130 kts | 330° |
| 2026-04-23 02:34 | -27.24394 | 151.95893 | 3065 ft | 134 kts | 330° |
| 2026-04-23 02:34 | -27.23588 | 151.95355 | 3070 ft | 138 kts | 331° |
| 2026-04-23 02:34 | -27.22756 | 151.94790 | 3052 ft | 139 kts | 330° |
| 2026-04-23 02:34 | -27.21930 | 151.94227 | 3098 ft | 137 kts | 330° |
| 2026-04-23 02:35 | -27.21250 | 151.93542 | 3152 ft | 132 kts | 297° |
| 2026-04-23 02:35 | -27.20875 | 151.92619 | 3154 ft | 131 kts | 288° |
| 2026-04-23 02:35 | -27.20574 | 151.91642 | 3144 ft | 134 kts | 285° |
| 2026-04-23 02:35 | -27.20290 | 151.90653 | 3137 ft | 132 kts | 284° |
| 2026-04-23 02:36 | -27.20011 | 151.89662 | 3136 ft | 133 kts | 284° |
| 2026-04-23 02:36 | -27.19740 | 151.88672 | 3134 ft | 131 kts | 283° |
| 2026-04-23 02:36 | -27.19475 | 151.87700 | 3138 ft | 130 kts | 283° |
| 2026-04-23 02:36 | -27.19221 | 151.86726 | 3138 ft | 129 kts | 283° |
| 2026-04-23 02:37 | -27.18977 | 151.85789 | 3095 ft | 123 kts | 283° |
| 2026-04-23 02:37 | -27.18731 | 151.84873 | 3099 ft | 121 kts | 283° |
| 2026-04-23 02:37 | -27.18494 | 151.83984 | 3103 ft | 117 kts | 283° |
| 2026-04-23 02:37 | -27.18273 | 151.83116 | 3109 ft | 115 kts | 282° |
| 2026-04-23 02:38 | -27.18057 | 151.82242 | 3112 ft | 117 kts | 283° |
| 2026-04-23 02:38 | -27.17846 | 151.81353 | 3110 ft | 118 kts | 282° |
| 2026-04-23 02:38 | -27.17637 | 151.80473 | 3109 ft | 116 kts | 283° |
| 2026-04-23 02:38 | -27.17430 | 151.79595 | 3110 ft | 116 kts | 282° |
| 2026-04-23 02:39 | -27.17216 | 151.78719 | 3104 ft | 120 kts | 282° |
| 2026-04-23 02:39 | -27.16992 | 151.77841 | 3064 ft | 114 kts | 282° |
| 2026-04-23 02:39 | -27.16772 | 151.76998 | 3056 ft | 110 kts | 282° |
| 2026-04-23 02:39 | -27.16560 | 151.76187 | 3053 ft | 106 kts | 282° |
| 2026-04-23 02:40 | -27.16352 | 151.75400 | 3056 ft | 105 kts | 282° |
| 2026-04-23 02:40 | -27.16138 | 151.74607 | 3054 ft | 107 kts | 282° |
| 2026-04-23 02:40 | -27.15924 | 151.73803 | 3021 ft | 106 kts | 282° |
| 2026-04-23 02:40 | -27.15718 | 151.73027 | 2977 ft | 101 kts | 282° |
| 2026-04-23 02:41 | -27.15528 | 151.72297 | 2961 ft | 95 kts | 282° |
| 2026-04-23 02:41 | -27.15345 | 151.71602 | 2959 ft | 91 kts | 283° |
| 2026-04-23 02:41 | -27.15169 | 151.70929 | 2964 ft | 89 kts | 284° |
| 2026-04-23 02:41 | -27.14947 | 151.70279 | 2831 ft | 97 kts | 307° |
| 2026-04-23 02:42 | -27.14500 | 151.69661 | 2566 ft | 108 kts | 311° |
| 2026-04-23 02:42 | -27.14021 | 151.69037 | 2379 ft | 95 kts | 327° |
| 2026-04-23 02:42 | -27.13565 | 151.69091 | 2248 ft | 72 kts | 85° |
| 2026-04-23 02:42 | -27.13673 | 151.69488 | 2131 ft | 42 kts | 133° |
| 2026-04-23 02:43 | -27.13833 | 151.69658 | 1856 ft | 31 kts | 147° |
| 2026-04-23 02:43 | -27.13949 | 151.69725 | 1624 ft | 6 kts | 161° |
| 2026-04-23 02:43 | -27.13973 | 151.69737 | 1525 ft | 4 kts | 179° |
| 2026-04-23 02:43 | -27.13975 | 151.69737 | 1524 ft | 0 kts | 181° |
| 2026-04-23 02:57 | -27.13986 | 151.69749 | 1589 ft | 6 kts | 192° |
| 2026-04-23 02:57 | -27.14178 | 151.69691 | 1778 ft | 54 kts | 193° |
| 2026-04-23 02:58 | -27.14652 | 151.69398 | 1886 ft | 92 kts | 193° |
| 2026-04-23 02:58 | -27.15279 | 151.69083 | 1902 ft | 107 kts | 197° |
| 2026-04-23 02:58 | -27.15966 | 151.68785 | 2046 ft | 104 kts | 197° |
| 2026-04-23 02:58 | -27.16690 | 151.68524 | 2093 ft | 113 kts | 189° |
| 2026-04-23 02:59 | -27.17504 | 151.68411 | 1985 ft | 124 kts | 173° |
| 2026-04-23 02:59 | -27.18318 | 151.68562 | 2042 ft | 113 kts | 163° |
| 2026-04-23 02:59 | -27.19074 | 151.68774 | 2080 ft | 112 kts | 160° |
| 2026-04-23 02:59 | -27.19779 | 151.68983 | 2171 ft | 97 kts | 160° |
| 2026-04-23 03:00 | -27.20393 | 151.69147 | 2174 ft | 86 kts | 161° |
| 2026-04-23 03:00 | -27.20945 | 151.69309 | 2188 ft | 79 kts | 161° |
| 2026-04-23 03:00 | -27.21473 | 151.69339 | 2179 ft | 75 kts | 176° |
| 2026-04-23 03:00 | -27.21980 | 151.69281 | 2190 ft | 72 kts | 179° |
| 2026-04-23 03:01 | -27.22472 | 151.69204 | 2210 ft | 72 kts | 180° |
| 2026-04-23 03:01 | -27.22961 | 151.69130 | 2236 ft | 70 kts | 180° |
| 2026-04-23 03:01 | -27.23446 | 151.69040 | 2230 ft | 70 kts | 179° |
| 2026-04-23 03:01 | -27.23931 | 151.68960 | 2160 ft | 70 kts | 178° |
| 2026-04-23 03:02 | -27.24496 | 151.68924 | 2074 ft | 95 kts | 173° |
| 2026-04-23 03:02 | -27.25234 | 151.69083 | 1891 ft | 117 kts | 154° |
| 2026-04-23 03:02 | -27.25949 | 151.69456 | 1936 ft | 110 kts | 155° |
| 2026-04-23 03:02 | -27.26610 | 151.69824 | 2030 ft | 101 kts | 153° |
| 2026-04-23 03:03 | -27.27215 | 151.70188 | 2092 ft | 97 kts | 160° |
| 2026-04-23 03:03 | -27.27860 | 151.70470 | 2089 ft | 105 kts | 162° |
| 2026-04-23 03:03 | -27.28332 | 151.70641 | 2074 ft | 110 kts | 161° |
| 2026-04-23 03:03 | -27.29074 | 151.70916 | 2077 ft | 113 kts | 160° |
| 2026-04-23 03:04 | -27.29807 | 151.71235 | 1998 ft | 118 kts | 158° |
| 2026-04-23 03:04 | -27.30616 | 151.71599 | 1936 ft | 122 kts | 157° |
| 2026-04-23 03:04 | -27.31373 | 151.71870 | 1971 ft | 113 kts | 163° |
| 2026-04-23 03:04 | -27.32130 | 151.72090 | 1999 ft | 114 kts | 164° |
| 2026-04-23 03:05 | -27.32905 | 151.72285 | 2045 ft | 111 kts | 164° |
| 2026-04-23 03:05 | -27.33604 | 151.72445 | 2184 ft | 93 kts | 164° |
| 2026-04-23 03:05 | -27.34307 | 151.72525 | 2062 ft | 107 kts | 169° |
| 2026-04-23 03:05 | -27.35032 | 151.72486 | 2056 ft | 107 kts | 182° |
| 2026-04-23 03:06 | -27.35777 | 151.72362 | 2108 ft | 107 kts | 183° |
| 2026-04-23 03:06 | -27.36519 | 151.72242 | 2082 ft | 114 kts | 177° |
| 2026-04-23 03:06 | -27.37294 | 151.72460 | 2031 ft | 116 kts | 173° |
| 2026-04-23 03:06 | -27.38060 | 151.72373 | 2064 ft | 107 kts | 171° |
| 2026-04-23 03:07 | -27.38761 | 151.72620 | 1900 ft | 103 kts | 154° |
| 2026-04-23 03:07 | -27.39360 | 151.73049 | 1708 ft | 107 kts | 148° |
| 2026-04-23 03:07 | -27.39974 | 151.73497 | 1469 ft | 103 kts | 144° |
| 2026-04-23 03:07 | -27.40357 | 151.73767 | 1399 ft | 41 kts | 144° |
| 2026-04-23 03:08 | -27.40550 | 151.73925 | 1348 ft | 30 kts | 146° |
| 2026-04-23 03:08 | -27.40711 | 151.74046 | 1352 ft | 19 kts | 210° |
| 2026-04-23 03:08 | -27.40817 | 151.73943 | 1338 ft | 20 kts | 250° |
| 2026-04-23 03:08 | -27.40894 | 151.73813 | 1337 ft | 23 kts | 235° |
| 2026-04-23 03:09 | -27.40977 | 151.73682 | 1335 ft | 18 kts | 241° |
| 2026-04-23 03:09 | -27.41020 | 151.73611 | 1335 ft | 14 kts | 244° |
| 2026-04-23 03:09 | -27.41101 | 151.73493 | 1342 ft | 21 kts | 208° |
| 2026-04-23 03:09 | -27.41234 | 151.73453 | 1341 ft | 20 kts | 183° |
| 2026-04-23 03:10 | -27.41348 | 151.73450 | 1345 ft | 15 kts | 108° |
| 2026-04-23 03:10 | -27.41371 | 151.73563 | 1338 ft | 10 kts | 99° |
| 2026-04-23 03:10 | -27.41360 | 151.73599 | 1334 ft | 3 kts | 29° |
| 2026-04-23 03:10 | -27.41356 | 151.73601 | 1333 ft | 0 kts | 16° |